Time;durP1;ratioP1;P1;durP2;ratioP2;P2;SDS_P1;SDS_P2;PMS_P1;PMS_P2;Temp;Humidity;BMP_temperature;BMP_pressure;BME280_temperature;BME280_humidity;BME280_pressure;Samples;Min_cycle;Max_cycle;Signal;HPM_P1;HPM_P2
2023/09/18 00:00:50;;;;;;;13.17;9.27;;;18.40;99.90;;;18.79;73.25;95452.09;5017525;28;20489;-57
2023/09/18 00:03:17;;;;;;;16.00;10.03;;;18.40;99.90;;;18.81;73.11;95450.94;5021373;28;20536;-61
2023/09/18 00:05:44;;;;;;;10.00;8.80;;;18.50;99.90;;;18.79;72.65;95446.78;5018751;28;20981;-59
2023/09/18 00:08:12;;;;;;;13.13;10.40;;;18.50;99.90;;;18.76;72.64;95434.66;5020756;28;20454;-64
2023/09/18 00:10:39;;;;;;;12.07;9.03;;;18.40;99.90;;;18.75;72.22;95445.50;5019170;28;20484;-63
2023/09/18 00:13:06;;;;;;;10.63;9.30;;;18.40;99.90;;;18.71;72.08;95439.66;5016635;28;20561;-59
2023/09/18 00:15:36;;;;;;;12.67;9.93;;;18.40;99.90;;;18.66;72.54;95441.22;5019134;28;20472;-59
2023/09/18 00:18:05;;;;;;;15.60;10.10;;;18.30;99.90;;;18.60;72.07;95437.41;5020376;28;20461;-65
2023/09/18 00:20:32;;;;;;;14.97;10.10;;;18.30;99.90;;;18.59;72.59;95444.59;5013882;28;21119;-59
2023/09/18 00:22:59;;;;;;;13.00;10.97;;;18.20;99.90;;;18.56;72.28;95442.28;5010587;28;20498;-59
2023/09/18 00:25:26;;;;;;;10.40;9.30;;;18.20;99.90;;;18.53;72.36;95447.09;5014110;28;20477;-59
2023/09/18 00:27:54;;;;;;;16.00;9.83;;;18.20;99.90;;;18.49;72.87;95446.63;5016869;28;20481;-59
2023/09/18 00:30:21;;;;;;;16.23;10.30;;;18.20;99.90;;;18.47;72.51;95440.66;5019628;28;20479;-64
2023/09/18 00:32:50;;;;;;;15.53;11.20;;;18.20;99.90;;;18.48;72.73;95439.63;5017810;28;20470;-63
2023/09/18 00:35:18;;;;;;;12.60;10.30;;;18.20;99.90;;;18.49;72.88;95443.97;5019564;28;20511;-65
2023/09/18 00:37:46;;;;;;;11.17;9.93;;;18.10;99.90;;;18.48;72.46;95449.47;5016458;28;20457;-60
2023/09/18 00:40:14;;;;;;;12.70;9.93;;;18.20;99.90;;;18.46;73.13;95446.97;5020110;28;20481;-60
2023/09/18 00:42:41;;;;;;;14.30;9.60;;;18.10;99.90;;;18.45;72.43;95450.63;5021761;28;20504;-64
2023/09/18 00:45:10;;;;;;;16.53;10.73;;;18.10;99.90;;;18.43;72.43;95447.31;5022058;28;20858;-65
2023/09/18 00:47:37;;;;;;;12.43;10.40;;;18.10;99.90;;;18.41;73.25;95449.34;5024125;28;21003;-64
2023/09/18 00:50:07;;;;;;;19.83;10.43;;;18.10;99.90;;;18.39;73.25;95451.38;5019468;28;20573;-59
2023/09/18 00:52:35;;;;;;;15.30;9.67;;;18.00;99.90;;;18.37;72.89;95450.69;5023362;28;21039;-59
2023/09/18 00:55:02;;;;;;;13.50;10.90;;;18.10;99.90;;;18.35;73.21;95458.03;5020938;28;20469;-64
2023/09/18 00:57:30;;;;;;;17.10;10.50;;;18.00;99.90;;;18.34;72.91;95449.22;5024924;28;20973;-63
2023/09/18 00:59:57;;;;;;;14.53;10.50;;;18.00;99.90;;;18.32;72.72;95461.03;5018415;28;21040;-65
2023/09/18 01:02:24;;;;;;;15.00;10.17;;;18.00;99.90;;;18.31;73.16;95459.38;5023687;28;20472;-58
2023/09/18 01:04:51;;;;;;;11.33;10.30;;;18.00;99.90;;;18.30;73.23;95452.41;5020688;28;20473;-60
2023/09/18 01:07:20;;;;;;;12.60;11.30;;;18.00;99.90;;;18.31;73.59;95464.69;5024096;28;20511;-60
2023/09/18 01:09:47;;;;;;;13.20;10.60;;;17.90;99.90;;;18.28;73.22;95461.38;5020675;28;20476;-59
2023/09/18 01:12:20;;;;;;;17.07;10.40;;;18.00;99.90;;;18.30;73.54;95460.38;5025354;28;20461;-65
2023/09/18 01:14:54;;;;;;;14.30;11.17;;;17.90;99.90;;;18.28;73.83;95461.38;5021885;28;20505;-64
2023/09/18 01:17:21;;;;;;;14.93;10.73;;;18.00;99.90;;;18.28;73.62;95457.91;5022960;28;20515;-64
2023/09/18 01:19:49;;;;;;;13.13;10.77;;;18.00;99.90;;;18.30;73.44;95458.53;5022500;28;20469;-64
2023/09/18 01:22:17;;;;;;;14.53;11.23;;;18.00;99.90;;;18.30;73.76;95458.53;5023227;28;20462;-59
2023/09/18 01:24:48;;;;;;;16.27;12.70;;;18.00;99.90;;;18.31;73.75;95456.69;5022135;28;20478;-59
2023/09/18 01:27:16;;;;;;;14.20;11.97;;;17.90;99.90;;;18.30;73.93;95452.41;5022771;28;20540;-65
2023/09/18 01:29:44;;;;;;;13.63;11.37;;;18.00;99.90;;;18.30;73.38;95455.88;5021306;28;20510;-58
2023/09/18 01:32:11;;;;;;;15.90;11.20;;;18.00;99.90;;;18.31;74.07;95459.38;5021862;28;20450;-60
2023/09/18 01:34:47;;;;;;;25.33;12.20;;;17.90;99.90;;;18.30;73.39;95460.38;5022944;28;20484;-60
2023/09/18 01:37:15;;;;;;;15.27;11.37;;;18.00;99.90;;;18.29;73.75;95456.88;5023082;28;20444;-60
2023/09/18 01:39:42;;;;;;;18.43;12.27;;;17.90;99.90;;;18.28;74.05;95453.41;5021572;28;20526;-58
2023/09/18 01:42:11;;;;;;;17.70;13.33;;;17.90;99.90;;;18.27;73.77;95459.72;5022392;28;20442;-60
2023/09/18 01:44:39;;;;;;;13.80;12.00;;;18.00;99.90;;;18.26;74.17;95460.72;5021759;28;20495;-64
2023/09/18 01:47:09;;;;;;;13.73;11.60;;;18.00;99.90;;;18.25;73.41;95461.72;5018876;28;21025;-60
2023/09/18 01:49:36;;;;;;;13.50;10.93;;;17.90;99.90;;;18.24;74.20;95462.72;5021937;28;20896;-59
2023/09/18 01:52:04;;;;;;;21.07;11.60;;;17.90;99.90;;;18.24;73.71;95462.72;5018984;28;20862;-64
2023/09/18 01:54:32;;;;;;;13.10;11.63;;;17.90;99.90;;;18.22;74.38;95464.72;5019822;28;20477;-63
2023/09/18 01:56:59;;;;;;;15.00;11.23;;;17.90;99.90;;;18.20;74.20;95453.44;5013309;28;20457;-64
2023/09/18 01:59:28;;;;;;;21.43;11.57;;;17.90;99.90;;;18.21;73.89;95465.72;5017071;28;20477;-63
2023/09/18 02:01:55;;;;;;;13.77;11.37;;;17.90;99.90;;;18.18;73.78;95458.09;5018979;28;20458;-59
2023/09/18 02:04:23;;;;;;;19.03;11.60;;;17.90;99.90;;;18.17;74.62;95466.25;5016713;28;20505;-62
2023/09/18 02:06:51;;;;;;;13.67;11.93;;;17.90;99.90;;;18.17;73.84;95464.44;5019178;28;20454;-67
2023/09/18 02:09:19;;;;;;;15.80;11.50;;;17.90;99.90;;;18.16;74.31;95460.09;5022303;28;20473;-59
2023/09/18 02:11:47;;;;;;;12.33;11.10;;;17.80;99.90;;;18.16;74.48;95461.94;5013013;28;20456;-58
2023/09/18 02:14:15;;;;;;;18.60;12.30;;;17.80;99.90;;;18.14;74.63;95464.78;5021009;28;20493;-64
2023/09/18 02:16:45;;;;;;;12.93;11.60;;;17.80;99.90;;;18.14;74.62;95466.59;5012419;28;20466;-59
2023/09/18 02:19:13;;;;;;;18.97;11.97;;;17.80;99.90;;;18.13;74.32;95468.44;5012706;28;20493;-59
2023/09/18 02:21:40;;;;;;;18.73;12.30;;;17.80;99.90;;;18.13;74.77;95464.94;5013273;28;20458;-63
2023/09/18 02:24:08;;;;;;;19.13;11.80;;;17.80;99.90;;;18.11;74.74;95465.13;5017767;28;20495;-62
2023/09/18 02:26:36;;;;;;;16.97;11.70;;;17.80;99.90;;;18.10;74.59;95466.09;5014992;28;20832;-65
2023/09/18 02:29:06;;;;;;;14.17;12.30;;;17.80;99.90;;;18.09;74.35;95464.44;5018517;28;20892;-60
2023/09/18 02:31:33;;;;;;;14.37;12.87;;;17.80;99.90;;;18.09;74.97;95467.94;5021968;28;20461;-58
2023/09/18 02:34:02;;;;;;;16.13;12.43;;;17.80;99.90;;;18.08;74.56;95466.28;5020348;28;20485;-65
2023/09/18 02:36:29;;;;;;;13.90;12.20;;;17.80;99.90;;;18.07;74.63;95459.28;5018889;28;20450;-65
2023/09/18 02:38:57;;;;;;;15.40;11.93;;;17.80;99.90;;;18.08;74.63;95462.81;5018164;28;20523;-64
2023/09/18 02:41:24;;;;;;;14.70;12.33;;;17.80;99.90;;;18.08;74.82;95465.47;5020941;28;20460;-65
2023/09/18 02:43:51;;;;;;;14.93;12.20;;;17.80;99.90;;;18.07;75.03;95469.94;5013151;28;20515;-63
2023/09/18 02:46:19;;;;;;;15.83;12.00;;;17.70;99.90;;;18.07;75.17;95463.78;5008746;28;20523;-58
2023/09/18 02:48:46;;;;;;;18.40;11.73;;;17.70;99.90;;;18.05;75.05;95463.97;5014167;28;20576;-58
2023/09/18 02:51:15;;;;;;;21.03;13.50;;;17.70;99.90;;;18.06;74.73;95472.78;5008954;28;20476;-60
2023/09/18 02:53:42;;;;;;;16.77;12.70;;;17.70;99.90;;;18.04;74.62;95474.78;5014093;28;20531;-61
2023/09/18 02:56:10;;;;;;;16.37;12.00;;;17.80;99.90;;;18.03;75.19;95478.44;5016530;28;20464;-64
2023/09/18 02:58:37;;;;;;;19.60;13.50;;;17.70;99.90;;;18.03;74.78;95478.44;5018980;28;20866;-59
2023/09/18 03:01:05;;;;;;;18.87;13.20;;;17.70;99.90;;;18.01;75.19;95475.13;5013199;28;20491;-63
2023/09/18 03:03:32;;;;;;;16.23;12.70;;;17.70;99.90;;;18.00;74.82;95476.13;5014070;28;21054;-65
2023/09/18 03:06:03;;;;;;;15.00;12.00;;;17.70;99.90;;;17.99;74.56;95480.63;5012105;28;20460;-61
2023/09/18 03:08:31;;;;;;;20.17;11.73;;;17.70;99.90;;;17.99;74.35;95483.28;5011867;28;20601;-60
2023/09/18 03:10:59;;;;;;;15.50;12.40;;;17.70;99.90;;;17.99;74.91;95477.13;5015120;28;20460;-60
2023/09/18 03:13:27;;;;;;;19.27;10.70;;;17.70;99.90;;;17.99;74.78;95482.47;5010948;28;20481;-59
2023/09/18 03:15:56;;;;;;;19.13;12.30;;;17.70;99.90;;;18.01;75.44;95477.78;5015236;28;20462;-60
2023/09/18 03:18:23;;;;;;;12.80;11.40;;;17.70;99.90;;;18.03;74.63;95478.44;5011820;28;20584;-65
2023/09/18 03:20:50;;;;;;;22.40;12.87;;;17.70;99.90;;;18.03;75.39;95471.31;5007762;28;20540;-60
2023/09/18 03:23:18;;;;;;;16.10;12.17;;;17.70;99.90;;;18.04;74.70;95470.28;5017212;28;20988;-59
2023/09/18 03:25:47;;;;;;;21.50;15.67;;;17.70;99.90;;;18.05;74.81;95465.81;5016030;28;20945;-64
2023/09/18 03:28:14;;;;;;;18.87;12.33;;;17.70;99.90;;;18.05;75.01;95471.13;5009159;28;21062;-65
2023/09/18 03:30:42;;;;;;;28.07;19.53;;;17.70;99.90;;;18.03;74.86;95457.13;5014942;28;20969;-60
2023/09/18 03:33:09;;;;;;;29.63;21.10;;;17.70;99.90;;;18.02;74.59;95469.63;5010352;28;21012;-60
2023/09/18 03:35:48;;;;;;;24.93;18.40;;;17.70;99.90;;;18.00;74.53;95470.78;5012736;28;20486;-62
2023/09/18 03:38:16;;;;;;;13.37;12.03;;;17.70;99.90;;;17.97;75.05;95469.31;5010130;28;20938;-60
2023/09/18 03:40:43;;;;;;;20.87;14.10;;;17.70;99.90;;;17.96;74.89;95466.84;5020615;28;20567;-60
2023/09/18 03:43:12;;;;;;;14.13;11.13;;;17.70;99.90;;;17.93;74.90;95452.03;5020022;28;20488;-59
2023/09/18 03:45:40;;;;;;;28.63;20.10;;;17.70;99.90;;;17.92;74.60;95451.19;5013077;28;21104;-59
2023/09/18 03:48:08;;;;;;;152.60;83.47;;;17.60;99.90;;;17.93;75.03;95454.69;5018949;28;20487;-60
2023/09/18 03:50:35;;;;;;;19.77;15.67;;;17.60;99.90;;;17.93;74.77;95452.03;5016173;28;20516;-59
2023/09/18 03:53:02;;;;;;;16.33;13.17;;;17.60;99.90;;;17.94;75.52;95444.84;5017269;28;20465;-65
2023/09/18 03:55:30;;;;;;;15.40;12.40;;;17.60;99.90;;;17.98;75.53;95454.16;5015984;28;20491;-58
2023/09/18 03:57:58;;;;;;;16.50;13.20;;;17.70;99.90;;;18.00;74.83;95453.00;5009939;28;21001;-65
2023/09/18 04:00:27;;;;;;;19.83;13.93;;;17.70;99.90;;;18.02;75.02;95447.50;5011742;28;20470;-60
2023/09/18 04:02:54;;;;;;;22.93;13.43;;;17.70;99.90;;;18.02;74.92;95447.50;5008508;28;20472;-63
2023/09/18 04:05:21;;;;;;;22.63;15.90;;;17.70;99.90;;;18.01;74.55;95443.19;5004672;28;20559;-64
2023/09/18 04:07:49;;;;;;;18.80;14.30;;;17.70;99.90;;;18.01;74.79;95444.00;5021411;28;20506;-59
2023/09/18 04:10:22;;;;;;;20.90;14.73;;;17.70;99.90;;;18.03;74.90;95443.84;5012782;28;20485;-59
2023/09/18 04:12:50;;;;;;;20.20;15.33;;;17.70;99.90;;;18.04;74.68;95448.97;5013926;28;20446;-59
2023/09/18 04:15:18;;;;;;;18.73;14.87;;;17.70;99.90;;;18.07;75.05;95447.81;5007774;28;20555;-58
2023/09/18 04:17:47;;;;;;;20.13;13.13;;;17.80;99.90;;;18.06;75.00;95449.66;5016450;28;20471;-59
2023/09/18 04:20:15;;;;;;;20.30;13.47;;;17.80;99.90;;;18.12;74.58;95453.44;5022298;28;20472;-59
2023/09/18 04:22:45;;;;;;;21.60;13.50;;;17.80;99.90;;;18.15;74.36;95468.25;5019776;28;20510;-59
2023/09/18 04:25:13;;;;;;;26.83;15.57;;;17.80;99.90;;;18.16;74.77;95465.44;5018524;28;20501;-59
2023/09/18 04:27:40;;;;;;;20.40;15.20;;;17.80;99.90;;;18.19;74.91;95470.41;5025507;28;20526;-60
2023/09/18 04:30:10;;;;;;;22.10;15.27;;;17.90;99.90;;;18.20;74.26;95469.41;5024862;28;20476;-58
2023/09/18 04:32:38;;;;;;;22.20;14.90;;;17.90;99.90;;;18.23;73.99;95468.22;5018178;28;20485;-59
2023/09/18 04:35:08;;;;;;;24.37;16.23;;;17.90;99.90;;;18.24;74.10;95470.72;5017368;28;20480;-65
2023/09/18 04:37:39;;;;;;;28.00;16.10;;;17.90;99.90;;;18.24;74.20;95470.72;5019124;28;20463;-65
2023/09/18 04:40:10;;;;;;;23.47;15.97;;;17.90;99.90;;;18.25;73.93;95471.56;5021422;28;20546;-64
2023/09/18 04:42:38;;;;;;;23.20;16.50;;;17.90;99.90;;;18.25;73.74;95472.38;5020822;28;20539;-64
2023/09/18 04:45:07;;;;;;;32.43;17.17;;;17.90;99.90;;;18.27;74.48;95469.53;5021319;28;20492;-65
2023/09/18 04:47:35;;;;;;;26.67;18.13;;;17.90;99.90;;;18.28;74.27;95465.88;5022926;28;20591;-64
2023/09/18 04:50:09;;;;;;;29.00;17.10;;;17.90;99.90;;;18.31;73.64;95464.69;5017830;28;20800;-63
2023/09/18 04:52:38;;;;;;;26.83;16.13;;;18.00;99.90;;;18.30;74.01;95463.06;5018934;28;20488;-65
2023/09/18 04:55:08;;;;;;;24.20;17.17;;;18.00;99.90;;;18.35;74.09;95471.34;5022651;28;20505;-60
2023/09/18 04:57:35;;;;;;;23.57;15.33;;;18.00;99.90;;;18.40;73.66;95466.31;5019501;28;20856;-60
2023/09/18 05:00:03;;;;;;;34.57;16.67;;;18.10;99.90;;;18.49;74.21;95472.44;5019487;28;20939;-66
2023/09/18 05:02:30;;;;;;;20.70;16.63;;;18.10;99.90;;;18.61;73.31;95469.22;5012372;28;20990;-65
2023/09/18 05:04:58;;;;;;;21.50;16.60;;;18.30;99.90;;;18.74;73.21;95471.28;5019062;28;20497;-64
2023/09/18 05:07:25;;;;;;;22.73;15.70;;;18.40;99.90;;;18.85;73.22;95463.94;5020077;28;20576;-64
2023/09/18 05:09:54;;;;;;;22.60;17.33;;;18.50;99.90;;;18.94;72.71;95469.03;5011860;28;20517;-60
2023/09/18 05:12:23;;;;;;;24.13;18.80;;;18.60;99.90;;;19.01;72.63;95469.19;5020613;28;21046;-61
2023/09/18 05:14:50;;;;;;;45.30;19.30;;;18.70;99.90;;;19.10;72.38;95461.94;5019571;28;20505;-61
2023/09/18 05:17:18;;;;;;;35.13;16.60;;;18.70;99.90;;;19.19;72.54;95473.38;5022553;28;20547;-60
2023/09/18 05:19:45;;;;;;;22.23;15.47;;;18.80;99.90;;;19.26;71.97;95472.47;5020118;28;20583;-63
2023/09/18 05:22:13;;;;;;;31.07;17.50;;;18.90;99.90;;;19.31;71.92;95470.09;5018679;28;20959;-61
2023/09/18 05:24:40;;;;;;;20.17;15.90;;;19.00;99.90;;;19.38;71.94;95482.72;5023106;28;20574;-60
2023/09/18 05:27:10;;;;;;;30.97;17.93;;;19.00;99.90;;;19.42;71.35;95486.69;5020820;28;20463;-62
2023/09/18 05:29:37;;;;;;;26.70;15.73;;;19.10;99.90;;;19.48;71.14;95488.66;5023447;28;20573;-61
2023/09/18 05:32:05;;;;;;;25.17;17.23;;;19.10;99.90;;;19.50;71.32;95481.28;5020722;28;20485;-63
2023/09/18 05:34:32;;;;;;;19.30;16.00;;;19.20;99.90;;;19.50;70.80;95486.63;5023535;28;20480;-60
2023/09/18 05:37:00;;;;;;;27.17;15.90;;;19.20;99.90;;;19.52;71.06;95485.44;5020644;28;20493;-63
2023/09/18 05:39:27;;;;;;;24.60;15.20;;;19.20;99.90;;;19.61;71.38;95486.19;5019718;28;20476;-60
2023/09/18 05:41:54;;;;;;;26.97;16.20;;;19.30;99.90;;;19.74;70.73;95482.91;5020125;28;20461;-63
2023/09/18 05:44:23;;;;;;;25.27;17.63;;;19.40;99.90;;;19.90;70.73;95492.63;5021811;28;20492;-60
2023/09/18 05:46:50;;;;;;;24.33;14.60;;;19.50;99.90;;;20.08;70.06;95483.41;5010429;28;20468;-61
2023/09/18 05:49:18;;;;;;;23.97;14.93;;;19.60;99.90;;;20.21;69.38;95488.94;5015553;28;20473;-60
2023/09/18 05:51:47;;;;;;;26.73;16.10;;;19.80;99.90;;;20.33;68.96;95492.81;5016061;28;20488;-62
2023/09/18 05:54:14;;;;;;;23.07;17.00;;;19.90;99.90;;;20.50;68.95;95493.44;5015573;28;21034;-67
2023/09/18 05:56:41;;;;;;;32.37;16.93;;;20.10;99.90;;;20.73;68.60;95489.84;5015738;28;20549;-61
2023/09/18 05:59:09;;;;;;;28.93;16.50;;;20.30;99.90;;;21.00;67.94;95488.28;5020904;28;20477;-60
2023/09/18 06:01:38;;;;;;;21.70;15.53;;;20.50;99.90;;;21.26;67.70;95487.72;5019206;28;21116;-61
2023/09/18 06:04:06;;;;;;;23.50;15.80;;;20.70;99.90;;;21.45;66.95;95483.56;5020644;28;20984;-60
2023/09/18 06:06:33;;;;;;;21.30;15.63;;;21.00;99.90;;;21.62;66.50;95480.66;5019119;28;20453;-60
2023/09/18 06:09:01;;;;;;;26.50;15.53;;;21.20;99.90;;;21.73;65.88;95477.44;5019815;28;21025;-64
2023/09/18 06:11:28;;;;;;;16.17;13.90;;;21.20;99.90;;;21.89;65.38;95480.88;5019949;28;20464;-61
2023/09/18 06:13:55;;;;;;;19.83;14.70;;;21.40;99.90;;;22.00;65.20;95480.34;5018725;28;20493;-64
2023/09/18 06:16:23;;;;;;;16.87;14.63;;;21.60;99.90;;;22.09;64.41;95486.34;5018538;28;20465;-65
2023/09/18 06:18:52;;;;;;;20.40;15.90;;;21.70;99.90;;;22.12;63.54;95481.44;5017700;28;20482;-65
2023/09/18 06:21:19;;;;;;;21.00;15.10;;;21.70;99.90;;;22.13;64.03;95487.63;5020213;28;20457;-61
2023/09/18 06:23:46;;;;;;;20.33;15.10;;;21.80;99.90;;;22.09;63.56;95487.19;5021258;28;20544;-66
2023/09/18 06:26:14;;;;;;;25.83;15.77;;;21.70;99.90;;;21.99;62.89;95492.06;5009949;28;20851;-61
2023/09/18 06:28:41;;;;;;;24.83;16.13;;;21.70;99.90;;;21.85;63.56;95483.94;5021895;28;20821;-61
2023/09/18 06:31:09;;;;;;;25.30;16.20;;;21.60;99.90;;;21.78;63.46;95491.09;5019341;28;20461;-64
2023/09/18 06:33:36;;;;;;;20.03;14.43;;;21.50;99.90;;;21.73;63.39;95488.16;5020726;28;21024;-61
2023/09/18 06:36:06;;;;;;;22.37;16.23;;;21.50;99.90;;;21.69;63.87;95488.75;5020846;28;20469;-64
2023/09/18 06:38:33;;;;;;;27.77;16.07;;;21.40;99.90;;;21.69;63.80;95486.91;5020662;28;20445;-60
2023/09/18 06:41:01;;;;;;;23.80;17.37;;;21.40;99.90;;;21.68;64.16;95479.91;5021109;28;20465;-62
2023/09/18 06:43:28;;;;;;;20.30;14.60;;;21.40;99.90;;;21.80;63.51;95489.06;5020218;28;20471;-60
2023/09/18 06:45:57;;;;;;;21.20;14.83;;;21.40;99.90;;;21.91;63.94;95489.56;5017521;28;20516;-61
2023/09/18 06:48:25;;;;;;;24.10;15.87;;;21.50;99.90;;;22.09;62.58;95491.72;5020604;28;20452;-61
2023/09/18 06:50:52;;;;;;;25.70;14.73;;;21.70;99.90;;;22.22;63.00;95490.97;5020443;28;20477;-61
2023/09/18 06:53:20;;;;;;;24.30;16.43;;;21.80;99.90;;;22.27;61.95;95480.50;5016739;28;20897;-64
2023/09/18 06:55:48;;;;;;;16.70;14.33;;;21.90;99.90;;;22.32;61.87;95486.97;5020093;28;20461;-64
2023/09/18 06:58:15;;;;;;;25.93;14.93;;;21.90;99.90;;;22.39;61.82;95495.03;5020348;28;20549;-61
2023/09/18 07:00:43;;;;;;;22.80;15.90;;;22.00;99.90;;;22.40;61.46;95493.97;5013592;28;22196;-61
2023/09/18 07:03:11;;;;;;;15.70;13.30;;;22.00;99.90;;;22.39;61.53;95492.34;5019620;28;20484;-64
2023/09/18 07:05:38;;;;;;;16.50;13.23;;;22.00;99.90;;;22.43;61.88;95493.59;5021688;28;20497;-63
2023/09/18 07:08:11;;;;;;;17.97;13.10;;;22.10;99.90;;;22.59;61.83;95479.03;5019561;28;20807;-63
2023/09/18 07:10:40;;;;;;;18.47;13.97;;;22.20;99.90;;;22.85;60.60;95486.34;5014574;28;20559;-60
2023/09/18 07:13:08;;;;;;;19.17;13.60;;;22.30;99.90;;;22.97;60.17;95483.06;5020905;28;20512;-62
2023/09/18 07:15:36;;;;;;;15.03;11.93;;;22.50;99.90;;;23.18;59.98;95491.00;5017818;28;20472;-61
2023/09/18 07:18:04;;;;;;;20.00;14.50;;;22.70;99.90;;;23.65;59.72;95482.19;5017656;28;20457;-61
2023/09/18 07:20:32;;;;;;;17.67;14.57;;;23.10;99.90;;;24.17;58.87;95488.56;5015134;28;20861;-61
2023/09/18 07:22:59;;;;;;;17.20;12.37;;;23.50;99.90;;;24.69;58.47;95492.19;5013638;28;20464;-60
2023/09/18 07:25:26;;;;;;;18.60;13.30;;;24.00;99.90;;;25.33;57.41;95488.75;5019039;28;20508;-61
2023/09/18 07:27:55;;;;;;;16.10;11.90;;;24.70;99.20;;;25.97;56.35;95491.41;5017336;28;20527;-60
2023/09/18 07:30:26;;;;;;;16.63;12.50;;;25.30;98.20;;;26.60;55.16;95495.75;5018889;28;20548;-64
2023/09/18 07:32:56;;;;;;;13.30;11.80;;;25.90;97.00;;;27.19;54.05;95490.72;5020404;28;20452;-65
2023/09/18 07:35:23;;;;;;;13.90;12.00;;;26.50;96.00;;;27.78;51.38;95498.16;5019233;28;20470;-64
2023/09/18 07:37:51;;;;;;;13.10;11.70;;;27.10;93.70;;;28.17;50.37;95491.28;5015746;28;20903;-64
2023/09/18 07:40:18;;;;;;;21.10;12.47;;;27.50;91.80;;;28.24;49.45;95488.47;5016947;28;20849;-64
2023/09/18 07:42:46;;;;;;;16.43;13.17;;;27.70;90.70;;;28.08;49.17;95490.00;5021208;28;20448;-60
2023/09/18 07:45:15;;;;;;;28.63;13.83;;;27.80;89.40;;;28.06;49.24;95494.84;5018323;28;20517;-60
2023/09/18 07:47:42;;;;;;;20.40;12.17;;;27.80;87.70;;;28.12;48.78;95488.47;5019981;28;20550;-59
2023/09/18 07:50:10;;;;;;;13.07;11.60;;;27.90;85.70;;;28.08;47.42;95490.00;5017971;28;20846;-63
2023/09/18 07:52:37;;;;;;;14.37;12.07;;;27.90;83.50;;;28.07;48.55;95493.75;5018818;28;20449;-64
2023/09/18 07:55:06;;;;;;;23.70;14.60;;;28.00;85.00;;;28.30;48.73;95484.81;5015984;28;20480;-61
2023/09/18 07:57:34;;;;;;;22.47;12.83;;;28.10;84.80;;;28.81;47.90;95477.00;5020904;28;20833;-61
2023/09/18 08:00:09;;;;;;;17.60;14.00;;;28.50;84.30;;;29.42;48.17;95484.66;5018265;28;20480;-60
2023/09/18 08:02:40;;;;;;;18.87;11.07;;;29.00;83.90;;;30.00;45.38;95488.13;5019881;28;20542;-64
2023/09/18 08:05:08;;;;;;;21.90;11.37;;;29.50;78.90;;;30.26;45.16;95483.09;5012584;28;20279;-63
2023/09/18 08:07:35;;;;;;;20.37;11.03;;;29.80;77.20;;;30.53;44.78;95486.75;5014469;28;20197;-60
2023/09/18 08:10:06;;;;;;;14.93;11.00;;;30.20;76.20;;;30.95;44.57;95490.81;5018604;28;20788;-60
2023/09/18 08:12:33;;;;;;;13.20;11.20;;;30.60;76.90;;;31.42;43.64;95481.31;5013647;28;20197;-61
2023/09/18 08:15:01;;;;;;;24.95;10.88;;;31.00;74.80;;;31.86;40.40;95483.09;5017784;28;20682;-61
2023/09/18 08:17:28;;;;;;;17.00;12.00;;;31.50;69.60;;;32.07;40.56;95484.91;5015721;28;20284;-61
2023/09/18 08:19:58;;;;;;;16.23;11.75;;;31.80;68.00;;;32.16;41.58;95475.19;5019077;28;20221;-60
2023/09/18 08:22:25;;;;;;;22.67;12.93;;;32.00;68.40;;;32.34;41.68;95473.13;5019071;28;20371;-64
2023/09/18 08:24:53;;;;;;;13.82;12.43;;;32.20;68.20;;;32.62;40.77;95468.38;5018407;28;20230;-64
2023/09/18 08:27:21;;;;;;;19.67;10.55;;;32.40;65.60;;;32.66;40.49;95466.81;5019113;28;20236;-64
2023/09/18 08:29:48;;;;;;;12.00;10.70;;;32.50;65.40;;;32.59;39.74;95466.97;5010707;28;20221;-63
2023/09/18 08:32:15;;;;;;;12.10;10.82;;;32.50;63.40;;;32.45;39.35;95465.84;5018019;28;20209;-62
2023/09/18 08:34:43;;;;;;;19.73;12.48;;;32.30;62.80;;;32.33;39.83;95463.31;5018172;28;20226;-59
2023/09/18 08:37:12;;;;;;;18.25;10.73;;;32.20;63.50;;;32.40;39.37;95465.81;5016627;28;20198;-61
2023/09/18 08:39:40;;;;;;;12.30;11.00;;;32.10;62.80;;;32.33;38.23;95468.75;5018944;28;20332;-63
2023/09/18 08:42:08;;;;;;;11.52;10.43;;;32.00;60.90;;;32.12;38.70;95455.00;5019886;28;20289;-61
2023/09/18 08:44:36;;;;;;;13.73;11.25;;;31.80;61.50;;;31.99;39.05;95449.97;5018177;28;20226;-65
2023/09/18 08:47:03;;;;;;;13.88;10.68;;;31.70;60.80;;;31.98;39.83;95461.97;5014438;28;20232;-62
2023/09/18 08:49:30;;;;;;;29.40;11.70;;;31.60;62.10;;;31.94;38.26;95448.03;5017600;28;20226;-63
2023/09/18 08:51:58;;;;;;;20.08;11.45;;;31.50;60.90;;;31.77;39.41;95450.09;5021055;28;20210;-60
2023/09/18 08:54:28;;;;;;;12.25;10.30;;;31.30;61.70;;;31.73;39.42;95444.38;5018110;28;20219;-63
2023/09/18 08:56:55;;;;;;;14.93;10.90;;;31.30;61.80;;;31.83;39.15;95437.38;5020359;28;20566;-63
2023/09/18 08:59:23;;;;;;;13.43;11.05;;;31.30;61.70;;;31.82;39.33;95441.97;5020199;28;20316;-61
2023/09/18 09:01:50;;;;;;;14.07;10.20;;;31.30;61.30;;;31.77;38.67;95444.66;5017092;28;20297;-65
2023/09/18 09:04:17;;;;;;;11.80;9.90;;;31.30;60.90;;;31.85;39.21;95435.19;5019992;28;20221;-61
2023/09/18 09:06:45;;;;;;;21.92;9.23;;;31.30;61.40;;;32.04;39.34;95432.88;5019729;28;20230;-59
2023/09/18 09:09:14;;;;;;;16.27;10.63;;;31.40;61.50;;;32.30;39.14;95436.59;5017109;28;20673;-65
2023/09/18 09:11:49;;;;;;;13.85;10.68;;;31.60;61.20;;;32.53;37.86;95444.38;5017105;28;20225;-65
2023/09/18 09:14:18;;;;;;;10.73;9.68;;;31.80;59.90;;;32.54;38.24;95442.47;5021026;28;20228;-64
2023/09/18 09:16:48;;;;;;;16.77;10.55;;;31.90;59.70;;;32.49;38.44;95435.09;5021517;28;20206;-65
2023/09/18 09:19:17;;;;;;;12.50;10.23;;;31.90;59.70;;;32.59;38.60;95428.84;5023158;28;20260;-62
2023/09/18 09:21:44;;;;;;;14.55;9.60;;;32.00;59.80;;;32.80;37.73;95423.53;5021679;28;20664;-62
2023/09/18 09:24:13;;;;;;;9.95;9.05;;;32.10;59.60;;;32.90;37.41;95422.75;5022815;28;20713;-64
2023/09/18 09:26:42;;;;;;;13.25;8.25;;;32.20;57.80;;;32.75;36.52;95432.50;5021234;28;20237;-62
2023/09/18 09:29:17;;;;;;;16.52;9.88;;;32.20;56.90;;;32.46;36.98;95423.91;5022526;28;20253;-62
2023/09/18 09:31:45;;;;;;;11.98;10.32;;;32.00;56.90;;;32.28;37.09;95419.72;5022698;28;20202;-61
2023/09/18 09:34:12;;;;;;;15.90;9.65;;;31.80;56.80;;;32.10;37.20;95419.09;5021655;28;20226;-61
2023/09/18 09:36:53;;;;;;;18.25;9.65;;;31.70;57.40;;;32.01;36.97;95423.34;5021569;28;20212;-62
2023/09/18 09:39:21;;;;;;;12.93;10.10;;;31.50;57.30;;;31.96;37.05;95417.84;5020204;28;20780;-63
2023/09/18 09:41:50;;;;;;;14.45;10.27;;;31.50;57.30;;;31.98;37.79;95421.16;5022763;28;20208;-62
2023/09/18 09:44:18;;;;;;;15.32;8.57;;;31.50;57.80;;;32.18;37.59;95412.31;5020130;28;20668;-61
2023/09/18 09:46:48;;;;;;;14.13;8.50;;;31.60;58.10;;;32.49;37.04;95410.56;5022999;28;20304;-62
2023/09/18 09:49:19;;;;;;;10.50;6.75;;;31.80;57.50;;;32.75;36.73;95410.72;5015799;28;20226;-64
2023/09/18 09:51:46;;;;;;;11.80;7.93;;;32.00;57.30;;;32.94;35.90;95404.75;5016285;28;20692;-64
2023/09/18 09:54:14;;;;;;;9.13;8.30;;;32.20;56.30;;;33.05;36.13;95399.06;5016281;28;20227;-60
2023/09/18 09:56:43;;;;;;;11.77;9.20;;;32.40;56.10;;;33.10;35.97;95398.25;5015765;28;20202;-63
2023/09/18 09:59:13;;;;;;;15.18;8.98;;;32.40;56.00;;;33.23;35.94;95402.38;5020640;28;20232;-60
2023/09/18 10:01:41;;;;;;;9.55;8.60;;;32.50;56.10;;;33.41;35.50;95401.06;5016415;28;20214;-61
2023/09/18 10:04:12;;;;;;;19.58;8.52;;;32.70;55.80;;;33.50;34.94;95393.97;5015777;28;20226;-61
2023/09/18 10:06:39;;;;;;;11.40;8.68;;;32.80;54.90;;;33.41;35.14;95393.69;5016128;28;20295;-60
2023/09/18 10:09:10;;;;;;;23.80;8.80;;;32.70;54.20;;;33.18;35.38;95384.13;5023623;28;20613;-61
2023/09/18 10:11:42;;;;;;;9.63;8.70;;;32.60;54.30;;;33.02;35.49;95388.69;5016471;28;20617;-61